One Hundred Fifty Mile House, Canada
Current Conditions -  °F | °C
As of 2:00 PM on Tuesday 21 Oct 2014 (Local Time) from CYWL Reporting Station
Broken Clouds Broken Clouds  
Wind Chill: 54°   Ceiling: 21000
Heat Index: 54°   Visibility: 15mi
Dew Point: 36°   Wind: 14mph
Humidity: 51%   Direction: 120°ESE
Pressure: 29.62"   Gusts: 22mph
Location:  52.12°N, 121.93°W
Report Text: CYWL 212100Z 12012G19KT 15SM FEW040 SCT100 BKN210 12/02 A2962 RMK CU1AC4CI2 CU TR SLP044 DENSITY ALT 3800FT
Loading
Personal Weather Stations






























Interactive Weather Map
Tropical Storm Tracking
New forecast layout! Learn more

10-Day Weather Forecast

Advertisements
Track Severe Weather on mobile